sensor_id;sensor_type;location;lat;lon;timestamp;pressure;altitude;pressure_sealevel;temperature;humidity
11345;BME280;5727;42.600;23.028;2023-03-03T00:00:31;93645.59;;;6.84;100.00
11345;BME280;5727;42.600;23.028;2023-03-03T00:03:05;93645.13;;;6.82;100.00
11345;BME280;5727;42.600;23.028;2023-03-03T00:05:33;93640.41;;;6.84;100.00
11345;BME280;5727;42.600;23.028;2023-03-03T00:08:00;93638.72;;;6.88;100.00
11345;BME280;5727;42.600;23.028;2023-03-03T00:10:27;93641.78;;;6.90;100.00
11345;BME280;5727;42.600;23.028;2023-03-03T00:12:54;93639.81;;;6.87;100.00
11345;BME280;5727;42.600;23.028;2023-03-03T00:15:22;93637.94;;;6.88;100.00
11345;BME280;5727;42.600;23.028;2023-03-03T00:17:50;93629.97;;;6.84;100.00
11345;BME280;5727;42.600;23.028;2023-03-03T00:20:31;93625.84;;;6.92;100.00
11345;BME280;5727;42.600;23.028;2023-03-03T00:23:12;93624.50;;;6.94;100.00
11345;BME280;5727;42.600;23.028;2023-03-03T00:25:42;93629.06;;;6.80;100.00
11345;BME280;5727;42.600;23.028;2023-03-03T00:28:25;93626.28;;;6.77;100.00
11345;BME280;5727;42.600;23.028;2023-03-03T00:30:53;93628.59;;;6.78;100.00
11345;BME280;5727;42.600;23.028;2023-03-03T00:33:29;93619.88;;;6.74;100.00
11345;BME280;5727;42.600;23.028;2023-03-03T00:36:09;93618.16;;;6.78;100.00
11345;BME280;5727;42.600;23.028;2023-03-03T00:38:47;93614.97;;;6.81;100.00
11345;BME280;5727;42.600;23.028;2023-03-03T00:41:19;93616.97;;;6.84;100.00
11345;BME280;5727;42.600;23.028;2023-03-03T00:43:47;93611.59;;;6.72;100.00
11345;BME280;5727;42.600;23.028;2023-03-03T00:46:15;93609.84;;;6.59;100.00
11345;BME280;5727;42.600;23.028;2023-03-03T00:48:44;93611.41;;;6.60;100.00
11345;BME280;5727;42.600;23.028;2023-03-03T00:51:24;93608.06;;;6.68;100.00
11345;BME280;5727;42.600;23.028;2023-03-03T00:53:51;93602.41;;;6.66;100.00
11345;BME280;5727;42.600;23.028;2023-03-03T00:56:18;93598.88;;;6.71;100.00
11345;BME280;5727;42.600;23.028;2023-03-03T00:58:45;93595.31;;;6.67;100.00
11345;BME280;5727;42.600;23.028;2023-03-03T01:01:12;93599.16;;;6.69;100.00
11345;BME280;5727;42.600;23.028;2023-03-03T01:03:39;93597.03;;;6.71;100.00
11345;BME280;5727;42.600;23.028;2023-03-03T01:06:06;93598.59;;;6.72;100.00
11345;BME280;5727;42.600;23.028;2023-03-03T01:08:34;93594.91;;;6.73;100.00
11345;BME280;5727;42.600;23.028;2023-03-03T01:11:05;93592.28;;;6.73;100.00
11345;BME280;5727;42.600;23.028;2023-03-03T01:13:34;93594.47;;;6.80;100.00
11345;BME280;5727;42.600;23.028;2023-03-03T01:16:02;93588.94;;;6.81;100.00
11345;BME280;5727;42.600;23.028;2023-03-03T01:18:29;93582.66;;;6.82;100.00
11345;BME280;5727;42.600;23.028;2023-03-03T01:20:56;93586.50;;;6.85;100.00
11345;BME280;5727;42.600;23.028;2023-03-03T01:23:23;93582.50;;;6.79;100.00
11345;BME280;5727;42.600;23.028;2023-03-03T01:25:51;93586.94;;;6.78;100.00
11345;BME280;5727;42.600;23.028;2023-03-03T01:28:17;93581.56;;;6.75;100.00
11345;BME280;5727;42.600;23.028;2023-03-03T01:30:44;93583.13;;;6.76;100.00
11345;BME280;5727;42.600;23.028;2023-03-03T01:33:11;93584.03;;;6.80;100.00
11345;BME280;5727;42.600;23.028;2023-03-03T01:35:42;93587.84;;;6.82;100.00
11345;BME280;5727;42.600;23.028;2023-03-03T01:38:09;93580.34;;;6.72;100.00
11345;BME280;5727;42.600;23.028;2023-03-03T01:40:36;93581.56;;;6.75;100.00
11345;BME280;5727;42.600;23.028;2023-03-03T01:43:04;93574.22;;;6.68;100.00
11345;BME280;5727;42.600;23.028;2023-03-03T01:45:42;93576.66;;;6.65;100.00
11345;BME280;5727;42.600;23.028;2023-03-03T01:48:15;93567.31;;;6.64;100.00
11345;BME280;5727;42.600;23.028;2023-03-03T01:50:47;93568.84;;;6.56;100.00
11345;BME280;5727;42.600;23.028;2023-03-03T01:53:16;93562.06;;;6.55;100.00
11345;BME280;5727;42.600;23.028;2023-03-03T01:55:45;93568.22;;;6.59;100.00
11345;BME280;5727;42.600;23.028;2023-03-03T01:58:16;93562.84;;;6.56;100.00
11345;BME280;5727;42.600;23.028;2023-03-03T02:00:47;93560.72;;;6.58;100.00
11345;BME280;5727;42.600;23.028;2023-03-03T02:03:16;93567.28;;;6.55;100.00
11345;BME280;5727;42.600;23.028;2023-03-03T02:05:44;93561.63;;;6.53;100.00
11345;BME280;5727;42.600;23.028;2023-03-03T02:08:14;93559.31;;;6.52;100.00
11345;BME280;5727;42.600;23.028;2023-03-03T02:10:43;93560.09;;;6.52;100.00
11345;BME280;5727;42.600;23.028;2023-03-03T02:13:11;93564.25;;;6.53;100.00
11345;BME280;5727;42.600;23.028;2023-03-03T02:15:40;93558.84;;;6.49;100.00
11345;BME280;5727;42.600;23.028;2023-03-03T02:18:09;93559.91;;;6.40;100.00
11345;BME280;5727;42.600;23.028;2023-03-03T02:20:45;93560.53;;;5.98;100.00
11345;BME280;5727;42.600;23.028;2023-03-03T02:23:21;93549.72;;;5.82;100.00
11345;BME280;5727;42.600;23.028;2023-03-03T02:26:08;93552.09;;;5.39;100.00
11345;BME280;5727;42.600;23.028;2023-03-03T02:28:36;93553.28;;;5.11;100.00
11345;BME280;5727;42.600;23.028;2023-03-03T02:31:06;93552.09;;;4.95;100.00
11345;BME280;5727;42.600;23.028;2023-03-03T02:33:35;93542.06;;;4.80;100.00
11345;BME280;5727;42.600;23.028;2023-03-03T02:36:01;93553.66;;;4.83;100.00
11345;BME280;5727;42.600;23.028;2023-03-03T02:38:31;93553.09;;;4.86;100.00
11345;BME280;5727;42.600;23.028;2023-03-03T02:41:08;93551.63;;;4.93;100.00
11345;BME280;5727;42.600;23.028;2023-03-03T02:43:41;93547.66;;;4.96;100.00
11345;BME280;5727;42.600;23.028;2023-03-03T02:46:09;93550.56;;;4.94;100.00
11345;BME280;5727;42.600;23.028;2023-03-03T02:48:36;93541.59;;;4.78;100.00
11345;BME280;5727;42.600;23.028;2023-03-03T02:51:03;93552.72;;;4.79;100.00
11345;BME280;5727;42.600;23.028;2023-03-03T02:53:30;93541.81;;;4.90;100.00
11345;BME280;5727;42.600;23.028;2023-03-03T02:55:57;93550.72;;;4.98;100.00
11345;BME280;5727;42.600;23.028;2023-03-03T02:58:25;93545.75;;;5.01;100.00
11345;BME280;5727;42.600;23.028;2023-03-03T03:00:52;93553.91;;;4.95;100.00
11345;BME280;5727;42.600;23.028;2023-03-03T03:03:19;93544.88;;;4.92;100.00
11345;BME280;5727;42.600;23.028;2023-03-03T03:05:46;93544.88;;;4.70;100.00
11345;BME280;5727;42.600;23.028;2023-03-03T03:08:13;93539.72;;;4.56;100.00
11345;BME280;5727;42.600;23.028;2023-03-03T03:10:39;93546.44;;;4.44;100.00
11345;BME280;5727;42.600;23.028;2023-03-03T03:13:06;93547.53;;;4.29;100.00
11345;BME280;5727;42.600;23.028;2023-03-03T03:15:35;93547.81;;;4.28;100.00
11345;BME280;5727;42.600;23.028;2023-03-03T03:18:02;93546.56;;;4.25;100.00
11345;BME280;5727;42.600;23.028;2023-03-03T03:20:28;93543.31;;;4.20;100.00
11345;BME280;5727;42.600;23.028;2023-03-03T03:22:55;93543.97;;;4.25;100.00
11345;BME280;5727;42.600;23.028;2023-03-03T03:25:22;93537.13;;;4.43;100.00
11345;BME280;5727;42.600;23.028;2023-03-03T03:27:48;93534.81;;;4.55;100.00
11345;BME280;5727;42.600;23.028;2023-03-03T03:30:15;93539.75;;;4.65;100.00
11345;BME280;5727;42.600;23.028;2023-03-03T03:32:46;93532.53;;;4.76;100.00
11345;BME280;5727;42.600;23.028;2023-03-03T03:35:13;93531.28;;;4.73;100.00
11345;BME280;5727;42.600;23.028;2023-03-03T03:37:41;93529.44;;;4.87;100.00
11345;BME280;5727;42.600;23.028;2023-03-03T03:40:09;93537.00;;;4.97;100.00
11345;BME280;5727;42.600;23.028;2023-03-03T03:42:36;93530.63;;;5.03;100.00
11345;BME280;5727;42.600;23.028;2023-03-03T03:45:05;93532.50;;;5.11;100.00
11345;BME280;5727;42.600;23.028;2023-03-03T03:47:31;93529.50;;;5.18;100.00
11345;BME280;5727;42.600;23.028;2023-03-03T03:49:59;93527.06;;;5.21;100.00
11345;BME280;5727;42.600;23.028;2023-03-03T03:52:26;93530.28;;;5.18;100.00
11345;BME280;5727;42.600;23.028;2023-03-03T03:54:53;93530.28;;;5.18;100.00
11345;BME280;5727;42.600;23.028;2023-03-03T03:57:19;93517.81;;;5.07;100.00
11345;BME280;5727;42.600;23.028;2023-03-03T03:59:48;93521.84;;;5.13;100.00
11345;BME280;5727;42.600;23.028;2023-03-03T04:02:15;93528.59;;;5.00;100.00
11345;BME280;5727;42.600;23.028;2023-03-03T04:04:42;93525.06;;;4.96;100.00
11345;BME280;5727;42.600;23.028;2023-03-03T04:07:10;93526.34;;;4.85;100.00
11345;BME280;5727;42.600;23.028;2023-03-03T04:09:37;93526.63;;;4.97;100.00
11345;BME280;5727;42.600;23.028;2023-03-03T04:12:04;93523.03;;;5.07;100.00
11345;BME280;5727;42.600;23.028;2023-03-03T04:14:31;93525.78;;;5.10;100.00
11345;BME280;5727;42.600;23.028;2023-03-03T04:16:57;93525.34;;;5.17;100.00
11345;BME280;5727;42.600;23.028;2023-03-03T04:19:24;93518.72;;;5.24;100.00
11345;BME280;5727;42.600;23.028;2023-03-03T04:21:51;93520.88;;;5.31;100.00
11345;BME280;5727;42.600;23.028;2023-03-03T04:24:19;93525.19;;;5.35;100.00
11345;BME280;5727;42.600;23.028;2023-03-03T04:26:45;93525.66;;;5.37;100.00
11345;BME280;5727;42.600;23.028;2023-03-03T04:29:12;93521.16;;;5.29;100.00
11345;BME280;5727;42.600;23.028;2023-03-03T04:31:39;93532.13;;;5.26;100.00
11345;BME280;5727;42.600;23.028;2023-03-03T04:34:05;93527.34;;;4.98;100.00
11345;BME280;5727;42.600;23.028;2023-03-03T04:36:32;93523.22;;;4.75;100.00
11345;BME280;5727;42.600;23.028;2023-03-03T04:38:59;93519.31;;;4.63;100.00
11345;BME280;5727;42.600;23.028;2023-03-03T04:41:27;93524.53;;;4.50;100.00
11345;BME280;5727;42.600;23.028;2023-03-03T04:43:54;93528.00;;;4.45;100.00
11345;BME280;5727;42.600;23.028;2023-03-03T04:46:20;93526.47;;;4.31;100.00
11345;BME280;5727;42.600;23.028;2023-03-03T04:48:47;93528.34;;;4.17;100.00
11345;BME280;5727;42.600;23.028;2023-03-03T04:51:13;93529.97;;;3.99;100.00
11345;BME280;5727;42.600;23.028;2023-03-03T04:53:41;93524.59;;;3.82;100.00
11345;BME280;5727;42.600;23.028;2023-03-03T04:56:07;93529.09;;;3.77;100.00
11345;BME280;5727;42.600;23.028;2023-03-03T04:58:36;93527.69;;;3.84;100.00
11345;BME280;5727;42.600;23.028;2023-03-03T05:01:04;93532.28;;;3.87;100.00
11345;BME280;5727;42.600;23.028;2023-03-03T05:03:30;93536.69;;;3.87;100.00
11345;BME280;5727;42.600;23.028;2023-03-03T05:05:57;93535.16;;;3.99;100.00
11345;BME280;5727;42.600;23.028;2023-03-03T05:08:24;93539.75;;;3.89;100.00
11345;BME280;5727;42.600;23.028;2023-03-03T05:10:51;93539.00;;;3.75;100.00
11345;BME280;5727;42.600;23.028;2023-03-03T05:13:18;93538.75;;;3.57;100.00
11345;BME280;5727;42.600;23.028;2023-03-03T05:15:50;93538.59;;;3.67;100.00
11345;BME280;5727;42.600;23.028;2023-03-03T05:18:17;93536.16;;;3.57;100.00
11345;BME280;5727;42.600;23.028;2023-03-03T05:20:44;93543.06;;;3.48;100.00
11345;BME280;5727;42.600;23.028;2023-03-03T05:23:11;93542.19;;;3.39;100.00
11345;BME280;5727;42.600;23.028;2023-03-03T05:25:39;93547.44;;;3.34;100.00
11345;BME280;5727;42.600;23.028;2023-03-03T05:28:05;93544.69;;;3.44;100.00
11345;BME280;5727;42.600;23.028;2023-03-03T05:30:32;93546.97;;;3.46;100.00
11345;BME280;5727;42.600;23.028;2023-03-03T05:33:00;93542.09;;;3.44;100.00
11345;BME280;5727;42.600;23.028;2023-03-03T05:35:27;93546.00;;;3.28;100.00
11345;BME280;5727;42.600;23.028;2023-03-03T05:37:54;93551.81;;;3.20;100.00
11345;BME280;5727;42.600;23.028;2023-03-03T05:40:22;93551.97;;;3.10;100.00
11345;BME280;5727;42.600;23.028;2023-03-03T05:42:49;93549.97;;;3.07;100.00
11345;BME280;5727;42.600;23.028;2023-03-03T05:45:16;93554.16;;;3.03;100.00
11345;BME280;5727;42.600;23.028;2023-03-03T05:47:44;93554.91;;;3.04;100.00
11345;BME280;5727;42.600;23.028;2023-03-03T05:50:14;93556.19;;;3.06;100.00
11345;BME280;5727;42.600;23.028;2023-03-03T05:52:41;93553.63;;;3.20;100.00
11345;BME280;5727;42.600;23.028;2023-03-03T05:55:09;93563.56;;;3.31;100.00
11345;BME280;5727;42.600;23.028;2023-03-03T05:57:36;93561.78;;;3.45;100.00
11345;BME280;5727;42.600;23.028;2023-03-03T06:00:03;93559.41;;;3.62;100.00
11345;BME280;5727;42.600;23.028;2023-03-03T06:02:31;93555.94;;;3.53;100.00
11345;BME280;5727;42.600;23.028;2023-03-03T06:05:16;93559.66;;;3.47;100.00
11345;BME280;5727;42.600;23.028;2023-03-03T06:07:43;93564.63;;;3.30;100.00
11345;BME280;5727;42.600;23.028;2023-03-03T06:10:10;93567.84;;;3.22;100.00
11345;BME280;5727;42.600;23.028;2023-03-03T06:12:37;93568.19;;;3.16;100.00
11345;BME280;5727;42.600;23.028;2023-03-03T06:15:04;93568.97;;;3.16;100.00
11345;BME280;5727;42.600;23.028;2023-03-03T06:17:31;93569.25;;;3.15;100.00
11345;BME280;5727;42.600;23.028;2023-03-03T06:19:58;93577.28;;;3.13;100.00
11345;BME280;5727;42.600;23.028;2023-03-03T06:22:26;93578.50;;;3.02;100.00
11345;BME280;5727;42.600;23.028;2023-03-03T06:24:53;93568.56;;;3.09;100.00
11345;BME280;5727;42.600;23.028;2023-03-03T06:27:20;93570.53;;;2.99;100.00
11345;BME280;5727;42.600;23.028;2023-03-03T06:29:47;93578.56;;;2.97;100.00
11345;BME280;5727;42.600;23.028;2023-03-03T06:32:13;93580.88;;;2.99;100.00
11345;BME280;5727;42.600;23.028;2023-03-03T06:34:40;93576.88;;;3.06;100.00
11345;BME280;5727;42.600;23.028;2023-03-03T06:37:07;93579.63;;;3.15;100.00
11345;BME280;5727;42.600;23.028;2023-03-03T06:39:35;93592.31;;;3.11;100.00
11345;BME280;5727;42.600;23.028;2023-03-03T06:42:02;93585.53;;;3.15;100.00
11345;BME280;5727;42.600;23.028;2023-03-03T06:44:28;93589.19;;;3.14;100.00
11345;BME280;5727;42.600;23.028;2023-03-03T06:46:55;93590.16;;;3.18;100.00
11345;BME280;5727;42.600;23.028;2023-03-03T06:49:23;93583.44;;;3.17;100.00
11345;BME280;5727;42.600;23.028;2023-03-03T06:51:49;93593.31;;;3.15;100.00
11345;BME280;5727;42.600;23.028;2023-03-03T06:54:17;93592.81;;;3.13;100.00
11345;BME280;5727;42.600;23.028;2023-03-03T06:56:46;93588.78;;;3.07;100.00
11345;BME280;5727;42.600;23.028;2023-03-03T06:59:16;93591.38;;;3.07;100.00
11345;BME280;5727;42.600;23.028;2023-03-03T07:01:45;93591.91;;;3.04;100.00
11345;BME280;5727;42.600;23.028;2023-03-03T07:04:23;93594.31;;;3.01;100.00
11345;BME280;5727;42.600;23.028;2023-03-03T07:06:53;93592.69;;;3.05;100.00
11345;BME280;5727;42.600;23.028;2023-03-03T07:09:21;93599.19;;;3.02;100.00
11345;BME280;5727;42.600;23.028;2023-03-03T07:11:50;93596.69;;;2.97;100.00
11345;BME280;5727;42.600;23.028;2023-03-03T07:14:18;93594.78;;;3.03;100.00
11345;BME280;5727;42.600;23.028;2023-03-03T07:16:45;93599.13;;;3.07;100.00
11345;BME280;5727;42.600;23.028;2023-03-03T07:19:17;93597.66;;;3.01;100.00
11345;BME280;5727;42.600;23.028;2023-03-03T07:21:45;93599.28;;;2.97;100.00
11345;BME280;5727;42.600;23.028;2023-03-03T07:24:21;93593.53;;;3.00;100.00
11345;BME280;5727;42.600;23.028;2023-03-03T07:26:51;93598.28;;;2.93;100.00
11345;BME280;5727;42.600;23.028;2023-03-03T07:29:23;93601.16;;;2.92;100.00
11345;BME280;5727;42.600;23.028;2023-03-03T07:31:51;93602.19;;;2.91;100.00
11345;BME280;5727;42.600;23.028;2023-03-03T07:34:21;93594.44;;;2.91;100.00
11345;BME280;5727;42.600;23.028;2023-03-03T07:36:48;93605.56;;;2.91;100.00
11345;BME280;5727;42.600;23.028;2023-03-03T07:39:30;93596.53;;;2.89;100.00
11345;BME280;5727;42.600;23.028;2023-03-03T07:42:13;93597.44;;;2.79;100.00
11345;BME280;5727;42.600;23.028;2023-03-03T07:44:40;93596.25;;;2.90;100.00
11345;BME280;5727;42.600;23.028;2023-03-03T07:47:18;93590.38;;;2.85;100.00
11345;BME280;5727;42.600;23.028;2023-03-03T07:49:46;93590.38;;;2.85;100.00
11345;BME280;5727;42.600;23.028;2023-03-03T07:52:24;93588.50;;;2.90;100.00
11345;BME280;5727;42.600;23.028;2023-03-03T07:54:53;93588.22;;;2.92;100.00
11345;BME280;5727;42.600;23.028;2023-03-03T07:57:24;93587.31;;;3.01;100.00
11345;BME280;5727;42.600;23.028;2023-03-03T07:59:54;93591.38;;;3.07;100.00
11345;BME280;5727;42.600;23.028;2023-03-03T08:02:42;93593.19;;;3.07;100.00
11345;BME280;5727;42.600;23.028;2023-03-03T08:05:26;93592.75;;;3.18;100.00
11345;BME280;5727;42.600;23.028;2023-03-03T08:07:55;93587.69;;;3.45;100.00
11345;BME280;5727;42.600;23.028;2023-03-03T08:10:34;93585.38;;;3.57;100.00
11345;BME280;5727;42.600;23.028;2023-03-03T08:13:10;93592.16;;;3.72;100.00
11345;BME280;5727;42.600;23.028;2023-03-03T08:15:41;93585.06;;;3.78;100.00
11345;BME280;5727;42.600;23.028;2023-03-03T08:18:17;93582.34;;;3.83;100.00
11345;BME280;5727;42.600;23.028;2023-03-03T08:20:49;93581.69;;;3.91;100.00
11345;BME280;5727;42.600;23.028;2023-03-03T08:23:17;93573.06;;;3.82;100.00
11345;BME280;5727;42.600;23.028;2023-03-03T08:25:44;93575.56;;;4.14;100.00
11345;BME280;5727;42.600;23.028;2023-03-03T08:28:13;93571.44;;;4.26;100.00
11345;BME280;5727;42.600;23.028;2023-03-03T08:30:41;93573.09;;;4.09;100.00
11345;BME280;5727;42.600;23.028;2023-03-03T08:33:09;93569.53;;;4.18;100.00
11345;BME280;5727;42.600;23.028;2023-03-03T08:35:35;93559.81;;;4.24;100.00
11345;BME280;5727;42.600;23.028;2023-03-03T08:38:02;93570.00;;;4.20;100.00
11345;BME280;5727;42.600;23.028;2023-03-03T08:40:30;93574.41;;;4.06;100.00
11345;BME280;5727;42.600;23.028;2023-03-03T08:42:57;93572.59;;;3.93;100.00
11345;BME280;5727;42.600;23.028;2023-03-03T08:45:25;93568.56;;;3.87;100.00
11345;BME280;5727;42.600;23.028;2023-03-03T08:47:54;93565.97;;;3.87;100.00
11345;BME280;5727;42.600;23.028;2023-03-03T08:50:20;93560.66;;;3.79;100.00
11345;BME280;5727;42.600;23.028;2023-03-03T08:52:48;93579.19;;;3.72;100.00
11345;BME280;5727;42.600;23.028;2023-03-03T08:55:14;93570.84;;;3.89;100.00
11345;BME280;5727;42.600;23.028;2023-03-03T08:57:41;93577.00;;;3.93;100.00
11345;BME280;5727;42.600;23.028;2023-03-03T09:00:11;93576.44;;;3.96;100.00
11345;BME280;5727;42.600;23.028;2023-03-03T09:02:40;93582.19;;;3.93;100.00
11345;BME280;5727;42.600;23.028;2023-03-03T09:05:08;93577.97;;;3.97;100.00
11345;BME280;5727;42.600;23.028;2023-03-03T09:07:35;93576.34;;;4.01;100.00
11345;BME280;5727;42.600;23.028;2023-03-03T09:10:04;93574.72;;;4.05;100.00
11345;BME280;5727;42.600;23.028;2023-03-03T09:12:33;93581.22;;;4.02;100.00
11345;BME280;5727;42.600;23.028;2023-03-03T09:15:11;93579.22;;;4.13;100.00
11345;BME280;5727;42.600;23.028;2023-03-03T09:17:40;93572.00;;;4.10;100.00
11345;BME280;5727;42.600;23.028;2023-03-03T09:20:22;93576.91;;;4.25;100.00
11345;BME280;5727;42.600;23.028;2023-03-03T09:22:49;93574.97;;;4.30;100.00
11345;BME280;5727;42.600;23.028;2023-03-03T09:25:21;93575.84;;;4.39;100.00
11345;BME280;5727;42.600;23.028;2023-03-03T09:27:51;93578.16;;;4.41;100.00
11345;BME280;5727;42.600;23.028;2023-03-03T09:30:32;93575.94;;;4.34;100.00
11345;BME280;5727;42.600;23.028;2023-03-03T09:33:19;93582.19;;;4.47;100.00
11345;BME280;5727;42.600;23.028;2023-03-03T09:35:49;93565.94;;;4.55;100.00
11345;BME280;5727;42.600;23.028;2023-03-03T09:38:27;93577.53;;;4.71;100.00
11345;BME280;5727;42.600;23.028;2023-03-03T09:43:55;93575.31;;;4.78;100.00
11345;BME280;5727;42.600;23.028;2023-03-03T09:46:30;93577.09;;;4.91;100.00
11345;BME280;5727;42.600;23.028;2023-03-03T09:49:07;93578.06;;;4.95;100.00
11345;BME280;5727;42.600;23.028;2023-03-03T09:51:51;93578.81;;;4.96;100.00
11345;BME280;5727;42.600;23.028;2023-03-03T09:54:29;93571.00;;;4.96;100.00
11345;BME280;5727;42.600;23.028;2023-03-03T09:57:06;93575.34;;;5.00;100.00
11345;BME280;5727;42.600;23.028;2023-03-03T09:59:48;93573.56;;;5.09;100.00
11345;BME280;5727;42.600;23.028;2023-03-03T10:02:30;93576.41;;;5.21;100.00
11345;BME280;5727;42.600;23.028;2023-03-03T10:05:11;93577.06;;;5.27;100.00
11345;BME280;5727;42.600;23.028;2023-03-03T10:08:02;93582.56;;;5.25;100.00
11345;BME280;5727;42.600;23.028;2023-03-03T10:11:00;93579.56;;;4.96;100.00
11345;BME280;5727;42.600;23.028;2023-03-03T10:13:54;93573.34;;;4.97;100.00
11345;BME280;5727;42.600;23.028;2023-03-03T10:16:33;93574.81;;;4.90;100.00
11345;BME280;5727;42.600;23.028;2023-03-03T10:19:12;93571.16;;;4.77;100.00
11345;BME280;5727;42.600;23.028;2023-03-03T10:21:47;93564.81;;;4.83;100.00
11345;BME280;5727;42.600;23.028;2023-03-03T10:24:24;93564.19;;;5.00;100.00
11345;BME280;5727;42.600;23.028;2023-03-03T10:27:15;93565.44;;;5.02;100.00
11345;BME280;5727;42.600;23.028;2023-03-03T10:29:56;93563.97;;;5.10;100.00
11345;BME280;5727;42.600;23.028;2023-03-03T10:32:34;93566.63;;;5.18;100.00
11345;BME280;5727;42.600;23.028;2023-03-03T10:35:21;93566.69;;;5.05;100.00
11345;BME280;5727;42.600;23.028;2023-03-03T10:38:01;93567.56;;;5.00;100.00
11345;BME280;5727;42.600;23.028;2023-03-03T10:40:39;93567.78;;;4.90;100.00
11345;BME280;5727;42.600;23.028;2023-03-03T10:43:24;93571.09;;;4.82;100.00
11345;BME280;5727;42.600;23.028;2023-03-03T10:46:22;93562.69;;;4.85;100.00
11345;BME280;5727;42.600;23.028;2023-03-03T10:49:05;93555.53;;;5.04;100.00
11345;BME280;5727;42.600;23.028;2023-03-03T10:51:43;93557.41;;;5.12;100.00
11345;BME280;5727;42.600;23.028;2023-03-03T10:54:29;93552.78;;;5.09;100.00
11345;BME280;5727;42.600;23.028;2023-03-03T10:57:02;93552.44;;;5.02;100.00
11345;BME280;5727;42.600;23.028;2023-03-03T10:59:41;93547.56;;;5.01;100.00
11345;BME280;5727;42.600;23.028;2023-03-03T11:02:17;93545.03;;;5.31;100.00
11345;BME280;5727;42.600;23.028;2023-03-03T11:05:01;93543.84;;;5.37;100.00
11345;BME280;5727;42.600;23.028;2023-03-03T11:07:34;93545.59;;;5.28;100.00
11345;BME280;5727;42.600;23.028;2023-03-03T11:10:17;93547.72;;;5.26;100.00
11345;BME280;5727;42.600;23.028;2023-03-03T11:12:53;93533.75;;;5.36;100.00
11345;BME280;5727;42.600;23.028;2023-03-03T11:15:33;93533.69;;;5.27;100.00
11345;BME280;5727;42.600;23.028;2023-03-03T11:18:18;93533.16;;;5.17;100.00
11345;BME280;5727;42.600;23.028;2023-03-03T11:20:53;93530.97;;;5.10;100.00
11345;BME280;5727;42.600;23.028;2023-03-03T11:23:41;93525.78;;;5.10;100.00
11345;BME280;5727;42.600;23.028;2023-03-03T11:26:25;93529.38;;;5.01;100.00
11345;BME280;5727;42.600;23.028;2023-03-03T11:29:08;93532.50;;;4.89;100.00
11345;BME280;5727;42.600;23.028;2023-03-03T11:31:45;93525.72;;;4.80;100.00
11345;BME280;5727;42.600;23.028;2023-03-03T11:34:23;93531.44;;;4.90;100.00
11345;BME280;5727;42.600;23.028;2023-03-03T11:37:03;93526.34;;;4.85;100.00
11345;BME280;5727;42.600;23.028;2023-03-03T11:39:32;93528.97;;;4.85;100.00
11345;BME280;5727;42.600;23.028;2023-03-03T11:42:08;93530.00;;;4.84;100.00
11345;BME280;5727;42.600;23.028;2023-03-03T11:44:44;93522.81;;;4.81;100.00
11345;BME280;5727;42.600;23.028;2023-03-03T11:47:16;93525.75;;;4.88;100.00
11345;BME280;5727;42.600;23.028;2023-03-03T11:49:49;93523.81;;;4.94;100.00
11345;BME280;5727;42.600;23.028;2023-03-03T11:52:23;93525.50;;;4.90;100.00
11345;BME280;5727;42.600;23.028;2023-03-03T11:54:56;93525.31;;;5.08;100.00
11345;BME280;5727;42.600;23.028;2023-03-03T11:57:31;93520.69;;;5.27;100.00
11345;BME280;5727;42.600;23.028;2023-03-03T12:00:16;93520.16;;;5.17;100.00
11345;BME280;5727;42.600;23.028;2023-03-03T12:02:57;93515.03;;;5.25;100.00
11345;BME280;5727;42.600;23.028;2023-03-03T12:05:47;93511.72;;;5.33;100.00
11345;BME280;5727;42.600;23.028;2023-03-03T12:08:39;93517.59;;;5.47;100.00
11345;BME280;5727;42.600;23.028;2023-03-03T12:11:11;93516.69;;;5.74;100.00
11345;BME280;5727;42.600;23.028;2023-03-03T12:13:53;93510.53;;;6.01;100.00
11345;BME280;5727;42.600;23.028;2023-03-03T12:16:40;93515.47;;;6.11;100.00
11345;BME280;5727;42.600;23.028;2023-03-03T12:19:20;93513.06;;;5.84;100.00
11345;BME280;5727;42.600;23.028;2023-03-03T12:22:07;93515.84;;;5.96;100.00
11345;BME280;5727;42.600;23.028;2023-03-03T12:24:46;93508.56;;;6.15;100.00
11345;BME280;5727;42.600;23.028;2023-03-03T12:27:22;93517.81;;;6.38;100.00
11345;BME280;5727;42.600;23.028;2023-03-03T12:30:02;93517.84;;;6.55;100.00
11345;BME280;5727;42.600;23.028;2023-03-03T12:32:42;93517.09;;;6.63;100.00
11345;BME280;5727;42.600;23.028;2023-03-03T12:35:19;93516.50;;;6.66;100.00
11345;BME280;5727;42.600;23.028;2023-03-03T12:37:53;93519.88;;;6.84;100.00
11345;BME280;5727;42.600;23.028;2023-03-03T12:40:24;93514.66;;;6.92;100.00
11345;BME280;5727;42.600;23.028;2023-03-03T12:43:02;93517.41;;;6.96;100.00
11345;BME280;5727;42.600;23.028;2023-03-03T12:45:45;93515.88;;;7.03;100.00
11345;BME280;5727;42.600;23.028;2023-03-03T12:48:20;93507.91;;;7.00;100.00
11345;BME280;5727;42.600;23.028;2023-03-03T12:50:56;93511.13;;;6.97;100.00
11345;BME280;5727;42.600;23.028;2023-03-03T12:53:47;93508.38;;;7.02;100.00
11345;BME280;5727;42.600;23.028;2023-03-03T12:56:22;93502.72;;;7.08;100.00
11345;BME280;5727;42.600;23.028;2023-03-03T12:58:56;93496.09;;;7.11;100.00
11345;BME280;5727;42.600;23.028;2023-03-03T13:01:36;93494.72;;;7.13;100.00
11345;BME280;5727;42.600;23.028;2023-03-03T13:04:11;93499.31;;;7.25;100.00
11345;BME280;5727;42.600;23.028;2023-03-03T13:06:47;93499.31;;;7.25;100.00
11345;BME280;5727;42.600;23.028;2023-03-03T13:09:26;93497.63;;;7.29;100.00
11345;BME280;5727;42.600;23.028;2023-03-03T13:12:07;93497.19;;;7.18;100.00
11345;BME280;5727;42.600;23.028;2023-03-03T13:14:45;93496.41;;;7.09;100.00
11345;BME280;5727;42.600;23.028;2023-03-03T13:17:21;93492.88;;;7.14;100.00
11345;BME280;5727;42.600;23.028;2023-03-03T13:19:52;93489.50;;;7.22;100.00
11345;BME280;5727;42.600;23.028;2023-03-03T13:22:32;93502.97;;;7.32;100.00
11345;BME280;5727;42.600;23.028;2023-03-03T13:25:02;93500.81;;;7.43;100.00
11345;BME280;5727;42.600;23.028;2023-03-03T13:27:37;93500.50;;;7.45;100.00